CheckWX is a tool to help pilots better visualize weather data.  It is not intended as a substitute for an official pre-flight weather briefing.

04:44:02 UTC

LEMH TAF
Menorca Airport
Menorca Island, Spain
TAF LEMH 230200Z 2303/2403 02008KT 9999 FEW030 TX18/2312Z TN09/2306Z PROB30 TEMPO 2303/2307 4000 BR BKN008 BECMG 2316/2318 VRB03KT

Mar-23@
03:00 UTC

Mar-23 @ 03:00 UTC

Mar-23@
16:00 UTC

Mar-23 @ 16:00 UTC

TAF LEMH 230200Z 2303/2403 02008KT 9999 FEW030 TX18/2312Z TN09/2306Z
Wind
  • 020° at 8 KTS
Cloud Levels
  • Few at 3,000' AGL

Mar-23@
03:00 UTC

Mar-23 @ 03:00 UTC

Mar-23@
07:00 UTC

Mar-23 @ 07:00 UTC

PROB30 TEMPO 2303/2307 4000 BR BKN008

Temporary - 30% Likelihood

Temporary - 30% Likelihood during this time.

Conditions
Mist
Cloud Levels
  • Broken at 800' AGL

Mar-23@
16:00 UTC

Mar-23 @ 16:00 UTC

Mar-24@
03:00 UTC

Mar-24 @ 03:00 UTC

BECMG 2316/2318 VRB03KT

Becoming

Becoming Conditions expected by Sat, Mar 23, 2019 @ 18:00 UTC

Wind
  • Variable at 3 KTS
Cloud Levels
  • Few at 3,000' AGL